createdAt,value
2022-09-11T00:01:54.281Z,29.35
2022-09-11T00:04:26.827Z,34.95
2022-09-11T00:06:56.207Z,30.70
2022-09-11T00:09:25.957Z,27.58
2022-09-11T00:11:55.847Z,37.67
2022-09-11T00:14:26.436Z,30.58
2022-09-11T00:16:54.930Z,40.78
2022-09-11T00:19:24.524Z,28.48
2022-09-11T00:21:55.509Z,23.27
2022-09-11T00:24:26.276Z,26.25
2022-09-11T00:26:56.497Z,27.48
2022-09-11T00:29:26.166Z,21.92
2022-09-11T00:31:57.703Z,38.13
2022-09-11T00:34:27.765Z,28.05
2022-09-11T00:36:58.086Z,25.38
2022-09-11T00:39:27.025Z,28.70
2022-09-11T00:41:56.325Z,18.90
2022-09-11T00:44:25.163Z,25.17
2022-09-11T00:46:59.366Z,26.02
2022-09-11T00:49:37.106Z,27.77
2022-09-11T00:52:27.296Z,29.77
2022-09-11T00:55:00.077Z,26.05
2022-09-11T00:57:31.092Z,28.58
2022-09-11T01:00:00.493Z,35.35
2022-09-11T01:02:34.545Z,35.50
2022-09-11T01:05:03.115Z,37.55
2022-09-11T01:07:35.565Z,45.38
2022-09-11T01:10:08.248Z,33.13
2022-09-11T01:12:49.454Z,37.95
2022-09-11T01:15:27.118Z,32.28
2022-09-11T01:18:01.331Z,36.65
2022-09-11T01:20:31.082Z,35.20
2022-09-11T01:23:09.030Z,47.65
2022-09-11T01:25:36.939Z,40.38
2022-09-11T01:28:21.702Z,38.15
2022-09-11T01:30:54.859Z,39.28
2022-09-11T01:33:28.739Z,52.45
2022-09-11T01:36:07.609Z,53.88
2022-09-11T01:38:57.528Z,46.42
2022-09-11T01:41:46.114Z,56.13
2022-09-11T01:44:28.799Z,54.83
2022-09-11T01:46:59.460Z,62.17
2022-09-11T01:49:28.696Z,55.05
2022-09-11T01:52:02.905Z,64.25
2022-09-11T01:54:39.378Z,60.47
2022-09-11T01:57:10.595Z,63.60
2022-09-11T01:59:45.293Z,76.10
2022-09-11T02:02:15.252Z,72.45
2022-09-11T02:04:52.537Z,72.20
2022-09-11T02:07:26.391Z,70.55
2022-09-11T02:09:59.768Z,69.07
2022-09-11T02:12:40.870Z,99.97
2022-09-11T02:15:11.350Z,96.65
2022-09-11T02:17:58.469Z,85.03
2022-09-11T02:20:31.357Z,66.53
2022-09-11T02:22:59.880Z,100.35
2022-09-11T02:25:28.322Z,116.72
2022-09-11T02:27:58.909Z,98.82
2022-09-11T02:30:27.250Z,73.90
2022-09-11T02:33:05.256Z,88.50
2022-09-11T02:35:46.515Z,84.38
2022-09-11T02:38:23.099Z,120.40
2022-09-11T02:41:09.116Z,123.28
2022-09-11T02:43:47.407Z,93.05
2022-09-11T02:46:25.679Z,103.00
2022-09-11T02:49:00.169Z,93.30
2022-09-11T02:51:46.978Z,92.32
2022-09-11T02:54:17.256Z,103.20
2022-09-11T02:56:49.904Z,117.20
2022-09-11T02:59:24.429Z,125.13
2022-09-11T03:01:55.110Z,116.05
2022-09-11T03:04:26.572Z,108.35
2022-09-11T03:06:58.702Z,120.22
2022-09-11T03:09:27.781Z,132.88
2022-09-11T03:12:01.917Z,153.35
2022-09-11T03:14:32.196Z,113.85
2022-09-11T03:17:00.902Z,124.65
2022-09-11T03:19:30.579Z,137.90
2022-09-11T03:22:00.453Z,125.25
2022-09-11T03:24:30.524Z,141.00
2022-09-11T03:27:00.487Z,140.88
2022-09-11T03:29:33.610Z,127.68
2022-09-11T03:32:03.656Z,154.20
2022-09-11T03:34:34.769Z,124.07
2022-09-11T03:37:04.661Z,133.15
2022-09-11T03:39:35.174Z,115.05
2022-09-11T03:42:04.592Z,141.15
2022-09-11T03:44:34.464Z,136.57
2022-09-11T03:47:05.596Z,155.77
2022-09-11T03:49:37.897Z,119.13
2022-09-11T03:52:07.372Z,143.80
2022-09-11T03:54:35.864Z,129.48
2022-09-11T03:57:07.323Z,118.75
2022-09-11T03:59:40.163Z,141.65
2022-09-11T04:02:09.812Z,151.93
2022-09-11T04:04:38.262Z,127.85
2022-09-11T04:07:07.546Z,116.88
2022-09-11T04:09:37.118Z,119.47
2022-09-11T04:12:07.408Z,143.23
2022-09-11T04:14:37.472Z,139.25
2022-09-11T04:17:09.577Z,126.57
2022-09-11T04:19:40.016Z,117.40
2022-09-11T04:22:08.855Z,114.63
2022-09-11T04:24:42.718Z,150.38
2022-09-11T04:27:13.777Z,146.77
2022-09-11T04:29:43.064Z,140.65
2022-09-11T04:32:13.210Z,160.15
2022-09-11T04:34:43.086Z,134.73
2022-09-11T04:37:12.358Z,126.80
2022-09-11T04:39:42.131Z,131.77
2022-09-11T04:42:10.863Z,143.40
2022-09-11T04:44:42.668Z,150.80
2022-09-11T04:47:11.447Z,133.85
2022-09-11T04:49:43.102Z,142.90
2022-09-11T04:52:15.272Z,167.63
2022-09-11T04:54:46.163Z,160.25
2022-09-11T04:57:16.769Z,175.18
2022-09-11T04:59:47.982Z,165.25
2022-09-11T05:02:17.307Z,212.20
2022-09-11T05:04:52.468Z,165.27
2022-09-11T05:07:22.067Z,176.93
2022-09-11T05:09:54.442Z,207.40
2022-09-11T05:12:23.241Z,196.75
2022-09-11T05:14:53.172Z,192.88
2022-09-11T05:17:21.904Z,218.45
2022-09-11T05:19:50.935Z,205.95
2022-09-11T05:22:24.905Z,231.50
2022-09-11T05:24:58.315Z,250.25
2022-09-11T05:27:28.239Z,249.98
2022-09-11T05:29:57.400Z,211.68
2022-09-11T05:32:26.190Z,222.20
2022-09-11T05:34:56.575Z,270.23
2022-09-11T05:37:26.286Z,265.30
2022-09-11T05:39:56.899Z,244.23
2022-09-11T05:42:28.658Z,271.67
2022-09-11T05:44:57.376Z,249.35
2022-09-11T05:47:30.356Z,281.70
2022-09-11T05:49:59.195Z,247.32
2022-09-11T05:52:34.837Z,304.73
2022-09-11T05:55:05.806Z,290.17
2022-09-11T05:57:37.544Z,233.70
2022-09-11T06:00:06.729Z,248.77
2022-09-11T06:02:56.098Z,276.00
2022-09-11T06:05:29.961Z,269.45
2022-09-11T06:08:01.445Z,292.77
2022-09-11T06:10:33.028Z,257.67
2022-09-11T06:13:01.474Z,323.80
2022-09-11T06:15:46.107Z,287.63
2022-09-11T06:18:16.564Z,307.75
2022-09-11T06:20:55.734Z,312.75
2022-09-11T06:23:24.355Z,277.27
2022-09-11T06:26:02.873Z,241.00
2022-09-11T06:28:35.617Z,277.10
2022-09-11T06:31:05.139Z,288.02
2022-09-11T06:33:37.635Z,298.00
2022-09-11T06:36:11.565Z,292.98
2022-09-11T06:38:44.341Z,272.95
2022-09-11T06:41:16.768Z,272.90
2022-09-11T06:43:47.684Z,273.42
2022-09-11T06:46:19.972Z,255.52
2022-09-11T06:48:50.543Z,261.02
2022-09-11T06:51:24.522Z,266.83
2022-09-11T06:53:58.123Z,287.80
2022-09-11T06:56:32.444Z,285.73
2022-09-11T06:59:02.693Z,300.48
2022-09-11T07:01:35.314Z,262.08
2022-09-11T07:04:05.095Z,292.33
2022-09-11T07:06:38.576Z,305.77
2022-09-11T07:09:08.333Z,300.88
2022-09-11T07:12:00.493Z,298.95
2022-09-11T07:14:31.215Z,275.77
2022-09-11T07:17:09.428Z,277.52
2022-09-11T07:19:38.351Z,275.58
2022-09-11T07:22:08.243Z,278.85
2022-09-11T07:24:38.049Z,275.42
2022-09-11T07:27:07.042Z,296.92
2022-09-11T07:29:37.389Z,290.90
2022-09-11T07:32:05.598Z,280.65
2022-09-11T07:34:35.705Z,286.88
2022-09-11T07:37:07.914Z,284.05
2022-09-11T07:39:38.638Z,308.20
2022-09-11T07:42:12.645Z,264.67
2022-09-11T07:44:42.515Z,271.20
2022-09-11T07:47:13.933Z,277.35
2022-09-11T07:49:47.999Z,273.55
2022-09-11T07:52:20.497Z,276.33
2022-09-11T07:54:56.641Z,274.80
2022-09-11T07:57:35.112Z,275.73
2022-09-11T08:00:08.277Z,268.48
2022-09-11T08:03:07.712Z,257.92
2022-09-11T08:05:39.439Z,293.58
2022-09-11T08:08:11.152Z,300.88
2022-09-11T08:10:40.998Z,271.08
2022-09-11T08:13:12.008Z,282.58
2022-09-11T08:15:46.743Z,267.98
2022-09-11T08:18:16.888Z,290.98
2022-09-11T08:20:45.440Z,290.48
2022-09-11T08:23:14.771Z,282.63
2022-09-11T08:25:44.708Z,290.13
2022-09-11T08:28:15.072Z,262.10
2022-09-11T08:30:44.381Z,253.10
2022-09-11T08:33:23.597Z,265.55
2022-09-11T08:35:52.988Z,287.52
2022-09-11T08:38:22.511Z,308.83
2022-09-11T08:40:52.136Z,293.10
2022-09-11T08:43:32.590Z,285.23
2022-09-11T08:46:05.718Z,301.42
2022-09-11T08:48:47.949Z,288.02
2022-09-11T08:51:18.392Z,299.98
2022-09-11T08:53:47.270Z,277.80
2022-09-11T08:56:18.953Z,279.08
2022-09-11T08:59:08.266Z,279.65
2022-09-11T09:01:37.962Z,260.58
2022-09-11T09:04:13.820Z,278.15
2022-09-11T09:06:48.154Z,267.13
2022-09-11T09:09:16.113Z,277.02
2022-09-11T09:12:07.652Z,274.55
2022-09-11T09:14:54.560Z,263.27
2022-09-11T09:17:26.028Z,240.43
2022-09-11T09:20:00.472Z,259.00
2022-09-11T09:22:52.983Z,258.50
2022-09-11T09:25:23.599Z,240.13
2022-09-11T09:27:57.926Z,248.40
2022-09-11T09:30:28.217Z,262.33
2022-09-11T09:33:15.579Z,257.08
2022-09-11T09:35:45.274Z,237.57
2022-09-11T09:38:27.336Z,234.05
2022-09-11T09:41:14.796Z,223.30
2022-09-11T09:43:46.474Z,209.35
2022-09-11T09:46:41.735Z,208.00
2022-09-11T09:49:10.997Z,217.40
2022-09-11T09:51:39.740Z,213.95
2022-09-11T09:54:11.324Z,217.98
2022-09-11T09:56:43.098Z,212.45
2022-09-11T09:59:20.958Z,227.48
2022-09-11T10:01:51.012Z,229.07
2022-09-11T10:04:20.111Z,217.63
2022-09-11T10:06:50.333Z,207.32
2022-09-11T10:09:31.071Z,204.48
2022-09-11T10:12:04.053Z,207.13
2022-09-11T10:14:54.346Z,224.48
2022-09-11T10:17:30.387Z,226.07
2022-09-11T10:20:18.486Z,233.93
2022-09-11T10:22:47.376Z,208.38
2022-09-11T10:25:16.566Z,190.65
2022-09-11T10:28:03.346Z,202.10
2022-09-11T10:30:43.505Z,200.20
2022-09-11T10:33:23.046Z,197.55
2022-09-11T10:35:55.199Z,179.98
2022-09-11T10:38:32.898Z,180.85
2022-09-11T10:41:19.554Z,185.75
2022-09-11T10:43:48.294Z,185.38
2022-09-11T10:46:24.021Z,167.07
2022-09-11T10:48:55.215Z,165.45
2022-09-11T10:51:25.741Z,149.55
2022-09-11T10:54:09.878Z,188.52
2022-09-11T10:56:43.008Z,147.95
2022-09-11T10:59:18.380Z,170.27
2022-09-11T11:01:47.357Z,160.02
2022-09-11T11:04:17.076Z,144.55
2022-09-11T11:06:45.338Z,130.95
2022-09-11T11:09:35.863Z,112.32
2022-09-11T11:12:11.202Z,116.38
2022-09-11T11:14:48.594Z,110.72
2022-09-11T11:17:25.054Z,113.30
2022-09-11T11:19:53.236Z,120.13
2022-09-11T11:22:36.645Z,119.03
2022-09-11T11:25:07.531Z,131.10
2022-09-11T11:27:54.210Z,122.70
2022-09-11T11:30:23.996Z,118.35
2022-09-11T11:32:55.420Z,117.88
2022-09-11T11:35:23.497Z,121.22
2022-09-11T11:37:54.460Z,120.35
2022-09-11T11:40:28.149Z,134.63
2022-09-11T11:45:45.726Z,121.03
2022-09-11T11:48:20.588Z,118.60
2022-09-11T11:50:52.682Z,121.72
2022-09-11T11:53:25.125Z,86.38
2022-09-11T11:56:11.640Z,78.07
2022-09-11T11:58:43.068Z,78.93
2022-09-11T12:01:19.540Z,73.03
2022-09-11T12:04:03.745Z,73.05
2022-09-11T12:06:32.056Z,67.75
2022-09-11T12:09:00.356Z,67.97
2022-09-11T12:11:31.496Z,69.72
2022-09-11T12:14:00.724Z,69.05
2022-09-11T12:16:35.345Z,66.97
2022-09-11T12:19:19.666Z,71.75
2022-09-11T12:21:54.611Z,63.72
2022-09-11T12:24:25.531Z,69.35
2022-09-11T12:27:28.621Z,66.00
2022-09-11T12:30:08.197Z,67.75
2022-09-11T12:32:43.053Z,70.22
2022-09-11T12:35:19.716Z,67.47
2022-09-11T12:38:13.122Z,47.17
2022-09-11T12:40:47.526Z,39.33
2022-09-11T12:43:18.372Z,42.08
2022-09-11T12:45:48.427Z,40.78
2022-09-11T12:48:17.709Z,35.53
2022-09-11T12:50:50.161Z,40.22
2022-09-11T12:53:23.531Z,37.53
2022-09-11T12:55:56.357Z,40.05
2022-09-11T12:58:28.506Z,33.38
2022-09-11T13:01:03.523Z,35.67
2022-09-11T13:03:33.069Z,37.08
2022-09-11T13:06:04.143Z,33.00
2022-09-11T13:08:34.906Z,38.75
2022-09-11T13:11:25.576Z,34.88
2022-09-11T13:13:53.836Z,49.17
2022-09-11T13:16:26.596Z,50.03
2022-09-11T13:19:13.695Z,47.60
2022-09-11T13:21:42.766Z,46.65
2022-09-11T13:24:27.830Z,39.53
2022-09-11T13:27:10.333Z,36.03
2022-09-11T13:29:40.115Z,40.50
2022-09-11T13:32:11.381Z,37.50
2022-09-11T13:34:47.440Z,44.58
2022-09-11T13:37:26.474Z,39.53
2022-09-11T13:39:56.286Z,44.10
2022-09-11T13:42:25.766Z,40.38
2022-09-11T13:44:57.691Z,38.70
2022-09-11T13:47:28.127Z,39.58
2022-09-11T13:49:58.530Z,45.78
2022-09-11T13:52:29.230Z,38.42
2022-09-11T13:55:00.677Z,38.10
2022-09-11T13:57:32.587Z,42.17
2022-09-11T14:00:02.144Z,37.03
2022-09-11T14:02:50.834Z,45.10
2022-09-11T14:05:23.436Z,37.72
2022-09-11T14:07:56.465Z,33.47
2022-09-11T14:10:35.284Z,27.52
2022-09-11T14:13:18.018Z,32.05
2022-09-11T14:15:48.030Z,26.52
2022-09-11T14:18:24.624Z,28.50
2022-09-11T14:20:54.358Z,25.15
2022-09-11T14:23:27.322Z,27.13
2022-09-11T14:26:07.568Z,25.58
2022-09-11T14:28:42.879Z,26.73
2022-09-11T14:31:14.358Z,23.25
2022-09-11T14:33:42.463Z,28.95
2022-09-11T14:36:18.148Z,24.25
2022-09-11T14:38:47.589Z,24.23
2022-09-11T14:41:16.701Z,28.52
2022-09-11T14:43:49.379Z,28.77
2022-09-11T14:46:17.933Z,25.25
2022-09-11T14:48:47.054Z,22.30
2022-09-11T14:51:16.251Z,20.05
2022-09-11T14:53:45.947Z,25.27
2022-09-11T14:56:14.634Z,22.35
2022-09-11T14:58:43.306Z,21.38
2022-09-11T15:01:13.938Z,19.02
2022-09-11T15:03:49.630Z,22.10
2022-09-11T15:06:20.468Z,23.63
2022-09-11T15:08:49.020Z,20.38
2022-09-11T15:11:17.109Z,20.98
2022-09-11T15:14:10.856Z,25.08
2022-09-11T15:16:35.341Z,20.00
2022-09-11T15:19:07.016Z,20.25
2022-09-11T15:21:39.282Z,22.55
2022-09-11T15:24:09.883Z,27.27
2022-09-11T15:26:42.927Z,19.02
2022-09-11T15:29:11.524Z,19.88
2022-09-11T15:31:42.073Z,26.05
2022-09-11T15:34:12.751Z,21.02
2022-09-11T15:36:45.549Z,20.33
2022-09-11T15:39:15.347Z,20.88
2022-09-11T15:41:45.407Z,19.67
2022-09-11T15:44:19.967Z,25.35
2022-09-11T15:46:50.853Z,17.50
2022-09-11T15:49:21.708Z,17.92
2022-09-11T15:51:51.272Z,18.67
2022-09-11T15:54:25.139Z,17.05
2022-09-11T15:56:55.369Z,18.20
2022-09-11T15:59:23.687Z,21.75
2022-09-11T16:01:59.221Z,19.38
2022-09-11T16:04:32.270Z,15.88
2022-09-11T16:07:01.380Z,14.18
2022-09-11T16:09:32.429Z,16.88
2022-09-11T16:12:02.816Z,16.88
2022-09-11T16:14:33.768Z,18.48
2022-09-11T16:17:05.699Z,14.98
2022-09-11T16:19:34.501Z,16.63
2022-09-11T16:22:05.211Z,15.98
2022-09-11T16:24:37.377Z,14.50
2022-09-11T16:27:07.673Z,13.95
2022-09-11T16:30:09.112Z,16.42
2022-09-11T16:32:34.046Z,210.60
2022-09-11T16:35:03.435Z,114.10
2022-09-11T16:37:38.431Z,19.98
2022-09-11T16:40:08.353Z,19.65
2022-09-11T16:42:40.920Z,18.20
2022-09-11T16:45:10.744Z,22.20
2022-09-11T16:47:41.780Z,20.15
2022-09-11T16:50:10.547Z,20.13
2022-09-11T16:52:45.557Z,20.92
2022-09-11T16:55:14.298Z,18.45
2022-09-11T17:00:16.359Z,22.55
2022-09-11T17:03:03.861Z,19.23
2022-09-11T17:05:33.977Z,18.65
2022-09-11T17:08:04.268Z,21.05
2022-09-11T17:10:35.727Z,18.02
2022-09-11T17:13:04.434Z,22.13
2022-09-11T17:15:34.779Z,17.80
2022-09-11T17:18:05.181Z,16.75
2022-09-11T17:20:34.610Z,20.48
2022-09-11T17:23:04.094Z,15.52
2022-09-11T17:25:35.007Z,18.55
2022-09-11T17:28:05.419Z,18.90
2022-09-11T17:30:41.645Z,15.02
2022-09-11T17:33:20.781Z,15.80
2022-09-11T17:35:49.119Z,14.93
2022-09-11T17:38:25.232Z,14.40
2022-09-11T17:41:00.360Z,17.92
2022-09-11T17:43:35.287Z,16.33
2022-09-11T17:46:05.070Z,26.33
2022-09-11T17:48:36.232Z,28.15
2022-09-11T17:51:10.716Z,27.90
2022-09-11T17:53:42.706Z,18.33
2022-09-11T17:56:14.434Z,17.35
2022-09-11T17:58:50.091Z,17.27
2022-09-11T18:01:20.899Z,15.73
2022-09-11T18:03:56.536Z,14.27
2022-09-11T18:06:27.759Z,15.82
2022-09-11T18:09:01.777Z,14.80
2022-09-11T18:11:32.908Z,13.75
2022-09-11T18:14:02.284Z,72.68
2022-09-11T18:16:31.735Z,18.67
2022-09-11T18:19:00.084Z,19.30
2022-09-11T18:21:29.119Z,15.70
2022-09-11T18:24:04.717Z,19.05
2022-09-11T18:26:36.570Z,18.17
2022-09-11T18:29:10.420Z,21.33
2022-09-11T18:31:41.426Z,22.23
2022-09-11T18:34:15.522Z,25.42
2022-09-11T18:36:45.169Z,21.58
2022-09-11T18:39:16.729Z,22.88
2022-09-11T18:41:45.586Z,18.02
2022-09-11T18:44:19.290Z,19.48
2022-09-11T18:46:48.471Z,21.35
2022-09-11T18:49:19.925Z,19.02
2022-09-11T18:51:57.148Z,17.30
2022-09-11T18:54:27.526Z,18.92
2022-09-11T18:57:00.296Z,17.47
2022-09-11T18:59:30.959Z,17.70
2022-09-11T19:02:03.254Z,18.88
2022-09-11T19:04:35.017Z,19.75
2022-09-11T19:07:15.879Z,18.23
2022-09-11T19:09:50.273Z,19.13
2022-09-11T19:12:19.423Z,19.42
2022-09-11T19:14:49.077Z,22.40
2022-09-11T19:17:18.613Z,21.98
2022-09-11T19:19:47.393Z,33.28
2022-09-11T19:22:15.676Z,25.85
2022-09-11T19:24:44.880Z,22.33
2022-09-11T19:27:13.376Z,28.70
2022-09-11T19:29:43.153Z,23.27
2022-09-11T19:32:13.072Z,30.20
2022-09-11T19:34:47.001Z,25.10
2022-09-11T19:37:20.124Z,25.67
2022-09-11T19:39:52.016Z,26.25
2022-09-11T19:42:20.999Z,28.40
2022-09-11T19:44:57.890Z,29.95
2022-09-11T19:47:29.368Z,29.00
2022-09-11T19:50:00.227Z,29.15
2022-09-11T19:52:32.999Z,30.52
2022-09-11T19:55:03.869Z,33.88
2022-09-11T19:57:36.543Z,32.08
2022-09-11T20:00:05.189Z,29.40
2022-09-11T20:02:52.688Z,30.92
2022-09-11T20:05:21.226Z,29.60
2022-09-11T20:07:57.558Z,30.05
2022-09-11T20:10:27.695Z,29.15
2022-09-11T20:13:00.533Z,31.80
2022-09-11T20:15:35.683Z,34.72
2022-09-11T20:18:09.654Z,36.20
2022-09-11T20:20:41.218Z,40.00
2022-09-11T20:23:20.696Z,37.22
2022-09-11T20:25:49.117Z,37.70
2022-09-11T20:28:19.269Z,39.67
2022-09-11T20:30:50.204Z,36.72
2022-09-11T20:33:24.575Z,36.03
2022-09-11T20:35:52.814Z,38.42
2022-09-11T20:38:23.150Z,34.38
2022-09-11T20:40:53.993Z,41.92
2022-09-11T20:43:23.023Z,40.72
2022-09-11T20:45:51.881Z,47.42
2022-09-11T20:48:22.970Z,48.72
2022-09-11T20:50:53.033Z,51.63
2022-09-11T20:53:23.117Z,47.70
2022-09-11T20:55:51.517Z,55.13
2022-09-11T20:58:20.386Z,57.38
2022-09-11T21:00:48.796Z,61.58
2022-09-11T21:03:36.320Z,57.95
2022-09-11T21:06:10.150Z,59.85
2022-09-11T21:08:44.199Z,62.75
2022-09-11T21:11:13.684Z,57.72
2022-09-11T21:13:43.163Z,63.15
2022-09-11T21:16:13.930Z,55.85
2022-09-11T21:18:47.627Z,58.58
2022-09-11T21:21:16.310Z,64.53
2022-09-11T21:23:44.854Z,55.20
2022-09-11T21:26:15.882Z,62.60
2022-09-11T21:28:46.685Z,63.92
2022-09-11T21:31:17.010Z,58.67
2022-09-11T21:33:47.007Z,61.75
2022-09-11T21:36:17.220Z,60.63
2022-09-11T21:38:49.365Z,65.15
2022-09-11T21:41:19.959Z,59.10
2022-09-11T21:43:49.614Z,56.05
2022-09-11T21:46:18.477Z,61.33
2022-09-11T21:48:47.062Z,61.38
2022-09-11T21:51:16.495Z,61.85
2022-09-11T21:53:46.879Z,64.20
2022-09-11T21:56:17.240Z,62.15
2022-09-11T21:58:45.700Z,61.90
2022-09-11T22:01:14.357Z,55.97
2022-09-11T22:03:51.826Z,57.63
2022-09-11T22:06:23.694Z,61.85
2022-09-11T22:08:52.362Z,60.35
2022-09-11T22:11:21.266Z,63.53
2022-09-11T22:13:50.251Z,58.95
2022-09-11T22:16:19.474Z,55.88
2022-09-11T22:18:52.231Z,59.25
2022-09-11T22:21:23.151Z,57.88
2022-09-11T22:23:52.353Z,61.60
2022-09-11T22:26:24.424Z,58.00
2022-09-11T22:28:53.295Z,65.40
2022-09-11T22:31:24.161Z,63.50
2022-09-11T22:33:53.856Z,65.45
2022-09-11T22:36:25.215Z,65.70
2022-09-11T22:38:53.824Z,60.03
2022-09-11T22:41:22.229Z,61.58
2022-09-11T22:43:50.712Z,59.35
2022-09-11T22:46:20.666Z,59.72
2022-09-11T22:48:49.900Z,61.15
2022-09-11T22:51:19.746Z,58.35
2022-09-11T22:53:51.840Z,63.00
2022-09-11T22:56:22.255Z,60.85
2022-09-11T22:58:52.892Z,63.88
2022-09-11T23:01:22.708Z,63.72
2022-09-11T23:04:02.467Z,65.47
2022-09-11T23:06:53.144Z,63.40
2022-09-11T23:09:23.213Z,56.45
2022-09-11T23:11:52.133Z,52.50
2022-09-11T23:14:24.401Z,64.43
2022-09-11T23:16:53.313Z,55.35
2022-09-11T23:19:30.394Z,65.22
2022-09-11T23:21:59.609Z,55.70
2022-09-11T23:24:30.291Z,59.55
2022-09-11T23:27:00.044Z,57.42
2022-09-11T23:29:28.574Z,61.35
2022-09-11T23:31:57.633Z,61.35
2022-09-11T23:34:28.565Z,59.22
2022-09-11T23:36:57.854Z,60.42
2022-09-11T23:39:28.588Z,64.38
2022-09-11T23:41:58.216Z,50.80
2022-09-11T23:44:27.442Z,60.13
2022-09-11T23:46:57.222Z,60.58
2022-09-11T23:49:26.418Z,65.28
2022-09-11T23:51:56.557Z,63.45
2022-09-11T23:54:25.141Z,55.15
2022-09-11T23:56:53.751Z,55.95
2022-09-11T23:59:22.597Z,58.30
